Time,TemperatureF,DewpointF,PressureIn,WindDirection,WindDirectionDegrees,WindSpeedMPH,WindSpeedGustMPH,Humidity,HourlyPrecipIn,Conditions,Clouds,dailyrainin,SoftwareType,DateUTC
2013-10-13 00:11:00,61.7,60.0,30.10,ESE,123,0.0,0.0,94,0.00,,,0.00,weatherlink.com 1.10,2013-10-13 04:11:00,
2013-10-13 00:26:00,61.3,60.0,30.10,ESE,123,0.0,0.0,94,0.00,,,0.00,weatherlink.com 1.10,2013-10-13 04:26:00,
2013-10-13 00:41:00,60.9,60.0,30.10,ESE,123,0.0,0.0,95,0.00,,,0.00,weatherlink.com 1.10,2013-10-13 04:41:00,
2013-10-13 00:56:00,60.6,59.0,30.10,ESE,123,0.0,0.0,95,0.00,,,0.00,weatherlink.com 1.10,2013-10-13 04:56:00,
2013-10-13 01:11:00,60.4,59.0,30.10,ESE,122,0.0,0.0,96,0.00,,,0.00,weatherlink.com 1.10,2013-10-13 05:11:00,
2013-10-13 01:26:00,60.1,59.0,30.11,ESE,122,0.0,0.0,96,0.00,,,0.00,weatherlink.com 1.10,2013-10-13 05:26:00,
2013-10-13 01:41:00,59.9,59.0,30.11,ESE,123,0.0,0.0,97,0.00,,,0.00,weatherlink.com 1.10,2013-10-13 05:41:00,
2013-10-13 01:56:00,59.6,59.0,30.11,ESE,123,0.0,0.0,97,0.00,,,0.00,weatherlink.com 1.10,2013-10-13 05:56:00,
2013-10-13 02:11:00,59.5,59.0,30.11,ESE,123,0.0,0.0,97,0.00,,,0.00,weatherlink.com 1.10,2013-10-13 06:11:00,
2013-10-13 02:26:00,59.1,58.0,30.12,ESE,123,0.0,0.0,97,0.00,,,0.00,weatherlink.com 1.10,2013-10-13 06:26:00,
2013-10-13 02:41:00,58.8,58.0,30.12,ESE,123,0.0,0.0,98,0.00,,,0.00,weatherlink.com 1.10,2013-10-13 06:41:00,
2013-10-13 02:56:00,58.4,58.0,30.12,ESE,123,0.0,0.0,98,0.00,,,0.00,weatherlink.com 1.10,2013-10-13 06:56:00,
2013-10-13 03:11:00,58.4,58.0,30.12,ESE,123,0.0,0.0,98,0.00,,,0.00,weatherlink.com 1.10,2013-10-13 07:11:00,
2013-10-13 03:26:00,58.2,58.0,30.12,ESE,123,0.0,0.0,98,0.00,,,0.00,weatherlink.com 1.10,2013-10-13 07:26:00,
2013-10-13 03:41:00,57.9,57.0,30.12,South,191,0.0,0.0,98,0.00,,,0.00,weatherlink.com 1.10,2013-10-13 07:41:00,
2013-10-13 03:56:00,58.0,58.0,30.13,South,191,0.0,0.0,99,0.00,,,0.00,weatherlink.com 1.10,2013-10-13 07:56:00,
2013-10-13 04:11:00,57.2,57.0,30.13,South,191,0.0,0.0,98,0.00,,,0.00,weatherlink.com 1.10,2013-10-13 08:11:00,
2013-10-13 04:27:00,56.9,57.0,30.13,South,191,0.0,0.0,99,0.00,,,0.00,weatherlink.com 1.10,2013-10-13 08:27:00,
2013-10-13 04:42:00,56.8,57.0,30.13,South,191,0.0,0.0,99,0.00,,,0.00,weatherlink.com 1.10,2013-10-13 08:42:00,
2013-10-13 04:57:00,57.0,57.0,30.13,South,191,0.0,0.0,99,0.00,,,0.00,weatherlink.com 1.10,2013-10-13 08:57:00,
2013-10-13 05:12:00,57.0,57.0,30.13,SSW,192,0.0,0.0,99,0.00,,,0.00,weatherlink.com 1.10,2013-10-13 09:12:00,
2013-10-13 05:27:00,57.0,57.0,30.14,SSW,192,0.0,0.0,99,0.00,,,0.00,weatherlink.com 1.10,2013-10-13 09:27:00,
2013-10-13 05:42:00,56.3,56.0,30.14,South,191,0.0,0.0,99,0.00,,,0.00,weatherlink.com 1.10,2013-10-13 09:42:00,
2013-10-13 05:57:00,56.1,56.0,30.15,South,191,0.0,0.0,99,0.00,,,0.00,weatherlink.com 1.10,2013-10-13 09:57:00,
2013-10-13 06:12:00,56.4,56.0,30.15,South,191,0.0,0.0,100,0.00,,,0.00,weatherlink.com 1.10,2013-10-13 10:12:00,
2013-10-13 06:27:00,56.7,57.0,30.16,SSW,195,0.0,0.0,100,0.00,,,0.00,weatherlink.com 1.10,2013-10-13 10:27:00,
2013-10-13 06:42:00,56.0,56.0,30.16,SSW,196,0.0,0.0,100,0.00,,,0.00,weatherlink.com 1.10,2013-10-13 10:42:00,
2013-10-13 06:57:00,56.1,56.0,30.17,North,358,0.0,0.0,100,0.00,,,0.00,weatherlink.com 1.10,2013-10-13 10:57:00,
2013-10-13 07:12:00,56.0,56.0,30.18,NW,318,0.0,0.0,100,0.00,,,0.00,weatherlink.com 1.10,2013-10-13 11:12:00,
2013-10-13 07:27:00,55.8,56.0,30.18,NW,318,0.0,0.0,100,0.00,,,0.00,weatherlink.com 1.10,2013-10-13 11:27:00,
2013-10-13 07:42:00,55.6,56.0,30.18,North,6,0.0,0.0,100,0.00,,,0.00,weatherlink.com 1.10,2013-10-13 11:42:00,
2013-10-13 07:57:00,56.0,56.0,30.18,North,360,0.0,2.0,100,0.00,,,0.00,weatherlink.com 1.10,2013-10-13 11:57:00,
2013-10-13 08:12:00,56.1,56.0,30.18,North,359,0.0,1.0,100,0.00,,,0.00,weatherlink.com 1.10,2013-10-13 12:12:00,
2013-10-13 08:27:00,56.3,56.0,30.19,NNE,16,0.0,1.0,100,0.00,,,0.00,weatherlink.com 1.10,2013-10-13 12:27:00,
2013-10-13 08:42:00,56.7,57.0,30.20,NNW,336,0.0,1.0,100,0.00,,,0.00,weatherlink.com 1.10,2013-10-13 12:42:00,
2013-10-13 08:57:00,56.2,56.0,30.20,NNW,343,0.0,0.0,100,0.00,,,0.00,weatherlink.com 1.10,2013-10-13 12:57:00,
2013-10-13 09:12:00,57.1,57.0,30.21,West,280,0.0,1.0,100,0.00,,,0.00,weatherlink.com 1.10,2013-10-13 13:12:00,
2013-10-13 09:27:00,58.4,58.0,30.21,North,357,0.0,2.0,100,0.00,,,0.00,weatherlink.com 1.10,2013-10-13 13:27:00,
2013-10-13 09:42:00,59.5,60.0,30.22,NNW,338,1.0,3.0,100,0.00,,,0.00,weatherlink.com 1.10,2013-10-13 13:42:00,
2013-10-13 09:57:00,60.4,60.0,30.22,WSW,257,1.0,5.0,100,0.00,,,0.00,weatherlink.com 1.10,2013-10-13 13:57:00,
2013-10-13 10:12:00,61.2,61.0,30.23,NE,54,1.0,5.0,100,0.00,,,0.00,weatherlink.com 1.10,2013-10-13 14:12:00,
2013-10-13 10:27:00,62.2,62.0,30.23,WSW,250,1.0,9.0,98,0.00,,,0.00,weatherlink.com 1.10,2013-10-13 14:27:00,
2013-10-13 10:42:00,63.4,62.0,30.23,WNW,293,3.0,11.0,96,0.00,,,0.00,weatherlink.com 1.10,2013-10-13 14:42:00,
2013-10-13 10:57:00,64.2,63.0,30.23,NNW,340,1.0,5.0,95,0.00,,,0.00,weatherlink.com 1.10,2013-10-13 14:57:00,
2013-10-13 11:12:00,65.2,64.0,30.23,NE,39,4.0,6.0,94,0.00,,,0.00,weatherlink.com 1.10,2013-10-13 15:12:00,
2013-10-13 11:27:00,66.4,65.0,30.23,ENE,72,1.0,5.0,94,0.00,,,0.00,weatherlink.com 1.10,2013-10-13 15:27:00,
2013-10-13 11:43:00,68.0,64.0,30.23,NNE,13,3.0,7.0,88,0.00,,,0.00,weatherlink.com 1.10,2013-10-13 15:43:00,
2013-10-13 11:58:00,68.7,64.0,30.23,ENE,70,0.0,4.0,86,0.00,,,0.00,weatherlink.com 1.10,2013-10-13 15:58:00,
2013-10-13 12:13:00,69.8,65.0,30.23,NE,40,1.0,8.0,84,0.00,,,0.00,weatherlink.com 1.10,2013-10-13 16:13:00,
2013-10-13 12:28:00,70.9,66.0,30.23,WSW,252,1.0,5.0,83,0.00,,,0.00,weatherlink.com 1.10,2013-10-13 16:28:00,
2013-10-13 12:43:00,71.9,65.0,30.23,NNW,330,1.0,6.0,78,0.00,,,0.00,weatherlink.com 1.10,2013-10-13 16:43:00,
2013-10-13 12:58:00,73.2,65.0,30.23,NE,44,3.0,5.0,75,0.00,,,0.00,weatherlink.com 1.10,2013-10-13 16:58:00,
2013-10-13 13:13:00,72.7,64.0,30.23,NE,36,2.0,5.0,75,0.00,,,0.00,weatherlink.com 1.10,2013-10-13 17:13:00,
2013-10-13 13:28:00,71.7,65.0,30.23,West,279,2.0,5.0,78,0.00,,,0.00,weatherlink.com 1.10,2013-10-13 17:28:00,
2013-10-13 13:43:00,71.6,64.0,30.23,NNW,333,2.0,8.0,77,0.00,,,0.00,weatherlink.com 1.10,2013-10-13 17:43:00,
2013-10-13 13:58:00,71.2,64.0,30.22,NNE,24,6.0,8.0,78,0.00,,,0.00,weatherlink.com 1.10,2013-10-13 17:58:00,
2013-10-13 14:13:00,70.8,64.0,30.22,NNE,20,6.0,7.0,78,0.00,,,0.00,weatherlink.com 1.10,2013-10-13 18:13:00,
2013-10-13 14:28:00,70.6,64.0,30.22,NW,305,0.0,6.0,80,0.00,,,0.00,weatherlink.com 1.10,2013-10-13 18:28:00,
2013-10-13 14:43:00,70.5,64.0,30.22,North,10,1.0,9.0,79,0.00,,,0.00,weatherlink.com 1.10,2013-10-13 18:43:00,
2013-10-13 14:59:00,70.9,63.0,30.22,North,349,6.0,8.0,77,0.00,,,0.00,weatherlink.com 1.10,2013-10-13 18:59:00,
2013-10-13 15:13:00,71.0,63.0,30.21,ENE,70,1.0,7.0,76,0.00,,,0.00,weatherlink.com 1.10,2013-10-13 19:13:00,
2013-10-13 15:28:00,71.3,63.0,30.21,NW,304,2.0,6.0,75,0.00,,,0.00,weatherlink.com 1.10,2013-10-13 19:28:00,
2013-10-13 15:43:00,70.9,62.0,30.21,North,8,3.0,6.0,74,0.00,,,0.00,weatherlink.com 1.10,2013-10-13 19:43:00,
2013-10-13 15:58:00,71.6,63.0,30.21,NW,319,2.0,6.0,73,0.00,,,0.00,weatherlink.com 1.10,2013-10-13 19:58:00,
2013-10-13 16:13:00,73.1,62.0,30.21,SW,236,1.0,6.0,69,0.00,,,0.00,weatherlink.com 1.10,2013-10-13 20:13:00,
2013-10-13 16:28:00,73.5,62.0,30.21,WNW,302,2.0,4.0,67,0.00,,,0.00,weatherlink.com 1.10,2013-10-13 20:28:00,
2013-10-13 16:43:00,73.3,62.0,30.20,SW,235,1.0,5.0,67,0.00,,,0.00,weatherlink.com 1.10,2013-10-13 20:43:00,
2013-10-13 16:58:00,73.8,62.0,30.21,NW,308,0.0,4.0,66,0.00,,,0.00,weatherlink.com 1.10,2013-10-13 20:58:00,
2013-10-13 17:13:00,73.7,61.0,30.20,West,271,2.0,6.0,65,0.00,,,0.00,weatherlink.com 1.10,2013-10-13 21:13:00,
2013-10-13 17:28:00,73.2,61.0,30.20,North,4,0.0,5.0,65,0.00,,,0.00,weatherlink.com 1.10,2013-10-13 21:28:00,
2013-10-13 17:43:00,72.8,61.0,30.20,ENE,65,1.0,9.0,66,0.00,,,0.00,weatherlink.com 1.10,2013-10-13 21:43:00,
2013-10-13 17:58:00,72.1,60.0,30.20,NW,308,3.0,5.0,66,0.00,,,0.00,weatherlink.com 1.10,2013-10-13 21:58:00,
2013-10-13 18:13:00,71.1,58.0,30.20,NW,323,0.0,6.0,64,0.00,,,0.00,weatherlink.com 1.10,2013-10-13 22:13:00,
2013-10-13 18:28:00,70.1,58.0,30.20,NNW,340,0.0,4.0,66,0.00,,,0.00,weatherlink.com 1.10,2013-10-13 22:28:00,
2013-10-13 18:43:00,69.3,58.0,30.21,SSW,194,0.0,4.0,67,0.00,,,0.00,weatherlink.com 1.10,2013-10-13 22:43:00,
2013-10-13 18:58:00,68.4,57.0,30.21,NNW,342,1.0,4.0,68,0.00,,,0.00,weatherlink.com 1.10,2013-10-13 22:58:00,
2013-10-13 19:13:00,67.7,57.0,30.21,North,358,0.0,3.0,69,0.00,,,0.00,weatherlink.com 1.10,2013-10-13 23:13:00,
2013-10-13 19:28:00,66.7,57.0,30.22,NNW,345,1.0,2.0,71,0.00,,,0.00,weatherlink.com 1.10,2013-10-13 23:28:00,
2013-10-13 19:43:00,66.2,57.0,30.22,NNW,336,0.0,1.0,72,0.00,,,0.00,weatherlink.com 1.10,2013-10-13 23:43:00,
2013-10-13 19:58:00,65.7,56.0,30.22,WNW,300,0.0,2.0,72,0.00,,,0.00,weatherlink.com 1.10,2013-10-13 23:58:00,
2013-10-13 20:13:00,65.3,56.0,30.23,North,349,0.0,2.0,72,0.00,,,0.00,weatherlink.com 1.10,2013-10-14 00:13:00,
2013-10-13 20:28:00,64.9,55.0,30.23,NNE,33,1.0,4.0,71,0.00,,,0.00,weatherlink.com 1.10,2013-10-14 00:28:00,
2013-10-13 20:43:00,64.3,55.0,30.24,North,4,1.0,3.0,71,0.00,,,0.00,weatherlink.com 1.10,2013-10-14 00:43:00,
2013-10-13 20:58:00,64.1,54.0,30.24,NNW,332,0.0,4.0,70,0.00,,,0.00,weatherlink.com 1.10,2013-10-14 00:58:00,
2013-10-13 21:13:00,63.7,53.0,30.25,NNE,20,1.0,4.0,69,0.00,,,0.00,weatherlink.com 1.10,2013-10-14 01:13:00,
2013-10-13 21:28:00,63.4,52.0,30.25,NNE,16,2.0,8.0,66,0.00,,,0.00,weatherlink.com 1.10,2013-10-14 01:28:00,
2013-10-13 21:43:00,63.2,51.0,30.25,North,5,0.0,5.0,64,0.00,,,0.00,weatherlink.com 1.10,2013-10-14 01:43:00,
2013-10-13 21:58:00,62.6,51.0,30.26,NE,47,1.0,2.0,65,0.00,,,0.00,weatherlink.com 1.10,2013-10-14 01:58:00,
2013-10-13 22:13:00,61.8,50.0,30.26,ENE,58,1.0,2.0,66,0.00,,,0.00,weatherlink.com 1.10,2013-10-14 02:13:00,
2013-10-13 22:28:00,61.1,51.0,30.26,ENE,65,1.0,4.0,69,0.00,,,0.00,weatherlink.com 1.10,2013-10-14 02:28:00,
2013-10-13 22:43:00,61.0,50.0,30.26,NNE,26,2.0,5.0,68,0.00,,,0.00,weatherlink.com 1.10,2013-10-14 02:43:00,
2013-10-13 22:58:00,60.8,50.0,30.25,NNE,18,3.0,5.0,67,0.00,,,0.00,weatherlink.com 1.10,2013-10-14 02:58:00,
2013-10-13 23:13:00,60.6,50.0,30.26,WNW,293,1.0,6.0,67,0.00,,,0.00,weatherlink.com 1.10,2013-10-14 03:13:00,
2013-10-13 23:28:00,60.2,49.0,30.26,NNE,26,3.0,6.0,66,0.00,,,0.00,weatherlink.com 1.10,2013-10-14 03:28:00,
2013-10-13 23:43:00,59.9,48.0,30.26,NNE,26,3.0,6.0,65,0.00,,,0.00,weatherlink.com 1.10,2013-10-14 03:43:00,
2013-10-13 23:58:00,59.4,48.0,30.27,NNE,30,2.0,4.0,66,0.00,,,0.00,weatherlink.com 1.10,2013-10-14 03:58:00,